createdAt,value
2023-05-19T00:01:37.828Z,101423.95
2023-05-19T00:04:07.242Z,101411.16
2023-05-19T00:06:36.605Z,101405.02
2023-05-19T00:09:10.852Z,101403.81
2023-05-19T00:11:40.851Z,101398.70
2023-05-19T00:14:10.720Z,101400.47
2023-05-19T00:16:39.942Z,101390.71
2023-05-19T00:19:12.321Z,101395.94
2023-05-19T00:21:41.149Z,101390.59
2023-05-19T00:24:09.951Z,101393.54
2023-05-19T00:26:38.694Z,101398.89
2023-05-19T00:29:08.578Z,101406.84
2023-05-19T00:31:37.299Z,101414.91
2023-05-19T00:34:06.862Z,101417.80
2023-05-19T00:36:35.941Z,101423.25
2023-05-19T00:39:04.782Z,101427.08
2023-05-19T00:41:33.667Z,101435.20
2023-05-19T00:44:02.446Z,101436.65
2023-05-19T00:46:31.338Z,101430.02
2023-05-19T00:49:00.247Z,101432.36
2023-05-19T00:51:29.956Z,101434.64
2023-05-19T00:53:59.222Z,101431.73
2023-05-19T00:56:28.038Z,101429.24
2023-05-19T00:58:57.609Z,101427.52
2023-05-19T01:01:26.943Z,101426.69
2023-05-19T01:03:59.362Z,101428.73
2023-05-19T01:06:29.830Z,101424.75
2023-05-19T01:08:58.722Z,101425.76
2023-05-19T01:11:27.446Z,101420.86
2023-05-19T01:13:56.664Z,101425.48
2023-05-19T01:16:40.439Z,101426.70
2023-05-19T01:19:46.977Z,101437.90
2023-05-19T01:22:55.095Z,101430.63
2023-05-19T01:25:42.863Z,101430.22
2023-05-19T01:28:23.628Z,101426.37
2023-05-19T01:30:56.056Z,101426.83
2023-05-19T01:33:26.091Z,101426.59
2023-05-19T01:35:56.370Z,101436.45
2023-05-19T01:38:26.492Z,101438.08
2023-05-19T01:40:56.575Z,101438.92
2023-05-19T01:43:27.706Z,101436.80
2023-05-19T01:45:59.093Z,101448.80
2023-05-19T01:48:30.182Z,101454.05
2023-05-19T01:51:00.024Z,101460.42
2023-05-19T01:53:28.737Z,101460.35
2023-05-19T01:55:58.060Z,101456.57
2023-05-19T01:58:48.644Z,101455.17
2023-05-19T02:01:53.315Z,101453.69
2023-05-19T02:04:42.396Z,101447.42
2023-05-19T02:07:46.864Z,101436.49
2023-05-19T02:10:23.140Z,101444.45
2023-05-19T02:12:54.288Z,101448.39
2023-05-19T02:15:30.999Z,101457.39
2023-05-19T02:18:04.774Z,101455.65
2023-05-19T02:20:33.773Z,101449.22
2023-05-19T02:23:02.829Z,101452.48
2023-05-19T02:25:31.966Z,101454.74
2023-05-19T02:28:01.440Z,101452.52
2023-05-19T02:30:32.532Z,101457.43
2023-05-19T02:33:02.196Z,101455.64
2023-05-19T02:35:30.959Z,101469.54
2023-05-19T02:37:59.971Z,101470.50
2023-05-19T02:40:29.111Z,101475.38
2023-05-19T02:42:58.056Z,101469.36
2023-05-19T02:45:28.752Z,101469.53
2023-05-19T02:48:00.012Z,101472.19
2023-05-19T02:50:28.777Z,101480.53
2023-05-19T02:52:57.580Z,101485.35
2023-05-19T02:55:26.958Z,101499.09
2023-05-19T02:57:55.960Z,101501.27
2023-05-19T03:00:24.704Z,101498.75
2023-05-19T03:02:54.350Z,101505.23
2023-05-19T03:05:23.238Z,101512.17
2023-05-19T03:07:52.135Z,101514.15
2023-05-19T03:10:21.142Z,101518.61
2023-05-19T03:12:49.921Z,101512.92
2023-05-19T03:15:19.508Z,101513.91
2023-05-19T03:17:48.262Z,101515.42
2023-05-19T03:20:17.218Z,101518.52
2023-05-19T03:22:45.933Z,101523.14
2023-05-19T03:25:14.785Z,101519.87
2023-05-19T03:27:43.820Z,101518.51
2023-05-19T03:30:13.451Z,101518.95
2023-05-19T03:32:53.520Z,101512.52
2023-05-19T03:35:22.528Z,101525.58
2023-05-19T03:37:51.426Z,101519.40
2023-05-19T03:40:20.298Z,101517.76
2023-05-19T03:42:49.652Z,101519.77
2023-05-19T03:45:18.508Z,101515.60
2023-05-19T03:47:47.827Z,101530.23
2023-05-19T03:50:34.267Z,101532.94
2023-05-19T03:53:13.924Z,101531.88
2023-05-19T03:55:44.574Z,101533.32
2023-05-19T03:58:14.826Z,101538.10
2023-05-19T04:00:43.618Z,101544.98
2023-05-19T04:03:12.623Z,101545.20
2023-05-19T04:05:42.542Z,101552.73
2023-05-19T04:08:11.262Z,101558.92
2023-05-19T04:10:40.002Z,101566.20
2023-05-19T04:13:09.295Z,101566.96
2023-05-19T04:15:38.189Z,101556.45
2023-05-19T04:18:07.014Z,101551.97
2023-05-19T04:20:35.813Z,101553.78
2023-05-19T04:23:05.242Z,101553.94
2023-05-19T04:25:36.144Z,101562.29
2023-05-19T04:28:04.910Z,101556.33
2023-05-19T04:30:34.653Z,101564.47
2023-05-19T04:33:05.003Z,101558.84
2023-05-19T04:35:34.056Z,101550.71
2023-05-19T04:38:03.159Z,101546.54
2023-05-19T04:40:33.700Z,101553.56
2023-05-19T04:43:02.679Z,101556.80
2023-05-19T04:45:33.329Z,101561.38
2023-05-19T04:48:03.109Z,101566.48
2023-05-19T04:50:32.668Z,101561.61
2023-05-19T04:53:02.230Z,101555.13
2023-05-19T04:55:31.769Z,101560.40
2023-05-19T04:58:01.081Z,101567.99
2023-05-19T05:00:30.208Z,101575.48
2023-05-19T05:03:05.390Z,101578.63
2023-05-19T05:05:35.640Z,101566.65
2023-05-19T05:08:04.666Z,101568.17
2023-05-19T05:10:37.269Z,101557.93
2023-05-19T05:13:07.314Z,101560.28
2023-05-19T05:15:36.517Z,101553.48
2023-05-19T05:18:06.018Z,101551.23
2023-05-19T05:20:35.257Z,101554.11
2023-05-19T05:23:04.378Z,101563.79
2023-05-19T05:25:33.956Z,101580.23
2023-05-19T05:28:05.425Z,101578.70
2023-05-19T05:30:35.306Z,101568.46
2023-05-19T05:33:04.458Z,101557.57
2023-05-19T05:35:35.751Z,101567.18
2023-05-19T05:38:06.834Z,101570.13
2023-05-19T05:40:36.258Z,101573.84
2023-05-19T05:43:05.270Z,101575.83
2023-05-19T05:45:36.054Z,101575.11
2023-05-19T05:48:06.125Z,101577.21
2023-05-19T05:50:35.798Z,101581.79
2023-05-19T05:53:07.502Z,101580.53
2023-05-19T05:55:36.961Z,101584.11
2023-05-19T05:58:06.637Z,101584.73
2023-05-19T06:00:37.048Z,101590.73
2023-05-19T06:03:06.450Z,101599.38
2023-05-19T06:05:36.099Z,101594.73
2023-05-19T06:08:05.339Z,101590.77
2023-05-19T06:10:35.855Z,101589.70
2023-05-19T06:13:06.925Z,101593.58
2023-05-19T06:15:39.455Z,101597.55
2023-05-19T06:18:15.629Z,101596.09
2023-05-19T06:20:44.728Z,101593.54
2023-05-19T06:23:13.400Z,101592.75
2023-05-19T06:25:42.518Z,101595.26
2023-05-19T06:28:11.862Z,101596.05
2023-05-19T06:30:40.614Z,101592.08
2023-05-19T06:33:29.082Z,101591.60
2023-05-19T06:35:58.434Z,101590.74
2023-05-19T06:38:27.375Z,101590.42
2023-05-19T06:40:56.893Z,101595.27
2023-05-19T06:43:25.987Z,101593.76
2023-05-19T06:45:59.829Z,101599.33
2023-05-19T06:48:28.664Z,101592.69
2023-05-19T06:50:57.461Z,101593.91
2023-05-19T06:53:26.706Z,101590.61
2023-05-19T06:55:59.932Z,101582.38
2023-05-19T06:58:31.974Z,101587.04
2023-05-19T07:01:01.095Z,101590.15
2023-05-19T07:03:33.187Z,101591.21
2023-05-19T07:06:02.207Z,101584.48
2023-05-19T07:08:30.907Z,101582.41
2023-05-19T07:11:01.592Z,101592.02
2023-05-19T07:13:30.517Z,101589.27
2023-05-19T07:15:59.422Z,101594.95
2023-05-19T07:18:32.082Z,101591.09
2023-05-19T07:21:01.082Z,101594.89
2023-05-19T07:23:29.930Z,101589.95
2023-05-19T07:25:59.020Z,101589.08
2023-05-19T07:28:27.811Z,101592.70
2023-05-19T07:30:56.566Z,101598.14
2023-05-19T07:33:27.213Z,101600.06
2023-05-19T07:35:56.365Z,101588.06
2023-05-19T07:38:25.119Z,101584.58
2023-05-19T07:40:53.834Z,101582.05
2023-05-19T07:43:22.647Z,101577.52
2023-05-19T07:45:51.508Z,101571.96
2023-05-19T07:48:22.609Z,101573.45
2023-05-19T07:50:52.368Z,101576.65
2023-05-19T07:53:22.764Z,101587.16
2023-05-19T07:55:51.529Z,101587.23
2023-05-19T07:58:20.876Z,101584.83
2023-05-19T08:00:49.646Z,101587.53
2023-05-19T08:03:18.707Z,101580.26
2023-05-19T08:05:47.679Z,101571.44
2023-05-19T08:08:19.991Z,101579.16
2023-05-19T08:10:48.844Z,101582.29
2023-05-19T08:13:17.944Z,101580.54
2023-05-19T08:15:47.220Z,101571.83
2023-05-19T08:18:16.028Z,101575.84
2023-05-19T08:20:46.638Z,101574.48
2023-05-19T08:23:15.650Z,101572.52
2023-05-19T08:25:45.227Z,101571.00
2023-05-19T08:28:14.180Z,101571.70
2023-05-19T08:30:42.999Z,101568.77
2023-05-19T08:33:12.080Z,101563.09
2023-05-19T08:35:40.863Z,101560.39
2023-05-19T08:38:09.538Z,101567.96
2023-05-19T08:40:41.738Z,101562.08
2023-05-19T08:43:11.463Z,101555.91
2023-05-19T08:45:44.033Z,101562.17
2023-05-19T08:48:14.876Z,101554.95
2023-05-19T08:50:53.361Z,101557.84
2023-05-19T08:53:34.378Z,101558.49
2023-05-19T08:56:16.957Z,101562.69
2023-05-19T08:58:46.335Z,101555.17
2023-05-19T09:01:18.774Z,101555.61
2023-05-19T09:03:50.206Z,101551.79
2023-05-19T09:06:19.385Z,101545.04
2023-05-19T09:08:48.427Z,101550.11
2023-05-19T09:11:17.292Z,101543.33
2023-05-19T09:13:46.305Z,101543.07
2023-05-19T09:16:15.154Z,101536.79
2023-05-19T09:18:57.935Z,101534.92
2023-05-19T09:21:33.341Z,101539.46
2023-05-19T09:24:06.789Z,101537.63
2023-05-19T09:26:43.140Z,101536.33
2023-05-19T09:29:16.983Z,101539.84
2023-05-19T09:31:52.910Z,101542.40
2023-05-19T09:34:25.070Z,101540.13
2023-05-19T09:36:54.481Z,101542.85
2023-05-19T09:39:25.726Z,101534.09
2023-05-19T09:41:56.356Z,101526.70
2023-05-19T09:44:31.499Z,101523.80
2023-05-19T09:47:00.374Z,101521.30
2023-05-19T09:49:31.455Z,101512.88
2023-05-19T09:52:04.116Z,101512.23
2023-05-19T09:54:34.765Z,101512.58
2023-05-19T09:57:07.720Z,101511.00
2023-05-19T09:59:39.283Z,101509.25
2023-05-19T10:02:15.810Z,101510.98
2023-05-19T10:04:46.741Z,101511.33
2023-05-19T10:07:16.089Z,101496.43
2023-05-19T10:09:45.863Z,101497.61
2023-05-19T10:12:15.358Z,101498.54
2023-05-19T10:14:44.287Z,101494.60
2023-05-19T10:17:14.720Z,101496.84
2023-05-19T10:19:45.070Z,101490.86
2023-05-19T10:22:13.919Z,101496.50
2023-05-19T10:24:42.805Z,101499.91
2023-05-19T10:27:15.237Z,101494.94
2023-05-19T10:29:50.253Z,101495.02
2023-05-19T10:32:27.204Z,101491.48
2023-05-19T10:35:14.370Z,101485.15
2023-05-19T10:37:47.147Z,101491.04
2023-05-19T10:40:29.908Z,101482.09
2023-05-19T10:43:12.118Z,101477.83
2023-05-19T10:45:51.886Z,101472.51
2023-05-19T10:48:22.414Z,101465.64
2023-05-19T10:50:55.551Z,101464.70
2023-05-19T10:53:35.066Z,101459.80
2023-05-19T10:56:04.432Z,101459.98
2023-05-19T10:58:45.331Z,101455.78
2023-05-19T11:01:15.911Z,101459.79
2023-05-19T11:03:57.552Z,101466.20
2023-05-19T11:06:38.291Z,101456.93
2023-05-19T11:09:15.442Z,101460.50
2023-05-19T11:11:52.367Z,101461.61
2023-05-19T11:14:27.526Z,101471.80
2023-05-19T11:17:01.091Z,101469.02
2023-05-19T11:19:31.476Z,101469.27
2023-05-19T11:22:12.001Z,101463.02
2023-05-19T11:24:52.455Z,101461.08
2023-05-19T11:27:29.266Z,101457.92
2023-05-19T11:30:00.791Z,101458.20
2023-05-19T11:32:34.569Z,101455.77
2023-05-19T11:35:03.554Z,101450.91
2023-05-19T11:37:33.529Z,101449.84
2023-05-19T11:40:09.650Z,101449.23
2023-05-19T11:42:39.065Z,101447.02
2023-05-19T11:45:09.041Z,101440.09
2023-05-19T11:47:50.683Z,101435.55
2023-05-19T11:50:27.478Z,101433.78
2023-05-19T11:52:57.145Z,101428.98
2023-05-19T11:55:25.969Z,101424.61
2023-05-19T11:58:05.108Z,101421.57
2023-05-19T12:00:41.092Z,101415.17
2023-05-19T12:03:10.829Z,101407.25
2023-05-19T12:05:46.889Z,101405.55
2023-05-19T12:08:18.915Z,101409.17
2023-05-19T12:10:51.179Z,101402.73
2023-05-19T12:13:20.237Z,101393.98
2023-05-19T12:15:52.453Z,101390.98
2023-05-19T12:18:21.593Z,101398.23
2023-05-19T12:20:50.589Z,101381.27
2023-05-19T12:23:19.914Z,101378.66
2023-05-19T12:25:49.722Z,101371.65
2023-05-19T12:28:19.902Z,101371.09
2023-05-19T12:30:52.456Z,101368.55
2023-05-19T12:33:23.036Z,101374.25
2023-05-19T12:35:51.978Z,101368.22
2023-05-19T12:38:21.857Z,101370.66
2023-05-19T12:40:50.775Z,101368.90
2023-05-19T12:43:23.285Z,101365.54
2023-05-19T12:45:52.733Z,101345.71
2023-05-19T12:48:24.478Z,101340.18
2023-05-19T12:50:56.394Z,101337.47
2023-05-19T12:53:27.395Z,101337.61
2023-05-19T12:55:56.307Z,101335.86
2023-05-19T12:58:25.107Z,101347.37
2023-05-19T13:00:59.979Z,101345.45
2023-05-19T13:03:29.027Z,101352.25
2023-05-19T13:05:59.921Z,101361.54
2023-05-19T13:08:28.655Z,101365.98
2023-05-19T13:10:57.415Z,101378.88
2023-05-19T13:13:26.293Z,101377.31
2023-05-19T13:15:55.661Z,101377.10
2023-05-19T13:18:24.639Z,101390.02
2023-05-19T13:20:54.510Z,101388.84
2023-05-19T13:23:23.229Z,101404.48
2023-05-19T13:25:52.035Z,101417.71
2023-05-19T13:28:20.733Z,101437.42
2023-05-19T13:30:49.949Z,101440.59
2023-05-19T13:33:18.895Z,101439.12
2023-05-19T13:35:47.702Z,101446.39
2023-05-19T13:38:16.510Z,101438.10
2023-05-19T13:40:45.981Z,101412.56
2023-05-19T13:43:14.741Z,101382.77
2023-05-19T13:45:44.757Z,101339.55
2023-05-19T13:48:13.660Z,101333.04
2023-05-19T13:50:42.942Z,101357.52
2023-05-19T13:53:11.834Z,101375.80
2023-05-19T13:55:40.877Z,101376.23
2023-05-19T13:58:11.298Z,101360.08
2023-05-19T14:00:41.878Z,101345.19
2023-05-19T14:03:10.939Z,101342.73
2023-05-19T14:05:39.887Z,101334.21
2023-05-19T14:08:15.453Z,101332.48
2023-05-19T14:10:48.296Z,101332.80
2023-05-19T14:13:32.621Z,101338.62
2023-05-19T14:16:08.708Z,101340.05
2023-05-19T14:18:37.724Z,101339.89
2023-05-19T14:21:06.616Z,101339.13
2023-05-19T14:23:35.649Z,101346.02
2023-05-19T14:26:04.575Z,101350.73
2023-05-19T14:28:33.393Z,101353.63
2023-05-19T14:31:02.304Z,101357.36
2023-05-19T14:33:34.905Z,101358.34
2023-05-19T14:36:05.657Z,101358.45
2023-05-19T14:38:34.774Z,101356.83
2023-05-19T14:41:04.055Z,101352.57
2023-05-19T14:43:33.749Z,101348.98
2023-05-19T14:46:02.734Z,101347.64
2023-05-19T14:48:32.159Z,101344.20
2023-05-19T14:51:01.552Z,101342.90
2023-05-19T14:53:30.848Z,101343.26
2023-05-19T14:55:59.802Z,101341.80
2023-05-19T14:58:29.398Z,101347.33
2023-05-19T15:00:59.580Z,101350.27
2023-05-19T15:03:28.948Z,101358.73
2023-05-19T15:05:58.549Z,101365.02
2023-05-19T15:08:27.357Z,101366.77
2023-05-19T15:10:56.174Z,101371.95
2023-05-19T15:13:26.673Z,101373.57
2023-05-19T15:16:08.308Z,101373.54
2023-05-19T15:18:44.310Z,101370.55
2023-05-19T15:21:13.399Z,101370.96
2023-05-19T15:23:42.174Z,101372.39
2023-05-19T15:26:10.992Z,101373.30
2023-05-19T15:28:39.742Z,101371.00
2023-05-19T15:31:08.674Z,101369.91
2023-05-19T15:33:37.464Z,101371.93
2023-05-19T15:36:06.596Z,101370.53
2023-05-19T15:38:36.361Z,101369.27
2023-05-19T15:41:09.066Z,101372.62
2023-05-19T15:43:38.028Z,101380.20
2023-05-19T15:46:06.778Z,101386.83
2023-05-19T15:48:35.660Z,101389.25
2023-05-19T15:51:05.011Z,101387.95
2023-05-19T15:53:33.723Z,101389.80
2023-05-19T15:56:04.002Z,101395.67
2023-05-19T15:58:33.513Z,101406.27
2023-05-19T16:01:03.063Z,101419.23
2023-05-19T16:03:32.035Z,101424.25
2023-05-19T16:06:01.280Z,101421.08
2023-05-19T16:08:30.266Z,101407.41
2023-05-19T16:10:59.059Z,101402.38
2023-05-19T16:13:28.177Z,101399.78
2023-05-19T16:15:57.387Z,101394.45
2023-05-19T16:18:29.363Z,101385.80
2023-05-19T16:20:58.282Z,101383.61
2023-05-19T16:23:27.744Z,101379.26
2023-05-19T16:25:57.754Z,101374.13
2023-05-19T16:28:28.147Z,101370.17
2023-05-19T16:31:00.580Z,101370.60
2023-05-19T16:33:30.389Z,101374.75
2023-05-19T16:36:00.298Z,101381.95
2023-05-19T16:38:29.175Z,101395.47
2023-05-19T16:40:57.898Z,101391.45
2023-05-19T16:43:26.741Z,101386.83
2023-05-19T16:45:55.775Z,101385.26
2023-05-19T16:48:24.739Z,101376.57
2023-05-19T16:50:53.602Z,101358.02
2023-05-19T16:53:22.710Z,101350.02
2023-05-19T16:55:52.092Z,101365.84
2023-05-19T16:58:21.220Z,101366.30
2023-05-19T17:00:52.807Z,101371.09
2023-05-19T17:03:22.161Z,101372.75
2023-05-19T17:05:51.186Z,101375.13
2023-05-19T17:08:19.935Z,101377.93
2023-05-19T17:10:48.747Z,101375.75
2023-05-19T17:13:17.423Z,101378.13
2023-05-19T17:15:46.120Z,101382.47
2023-05-19T17:18:16.204Z,101381.98
2023-05-19T17:20:45.232Z,101386.41
2023-05-19T17:23:13.860Z,101384.05
2023-05-19T17:25:42.804Z,101385.92
2023-05-19T17:28:12.062Z,101386.58
2023-05-19T17:30:41.594Z,101388.58
2023-05-19T17:33:11.195Z,101389.95
2023-05-19T17:35:41.539Z,101389.84
2023-05-19T17:38:10.481Z,101391.33
2023-05-19T17:40:41.952Z,101392.86
2023-05-19T17:43:11.148Z,101397.15
2023-05-19T17:45:39.980Z,101404.43
2023-05-19T17:48:08.866Z,101412.55
2023-05-19T17:50:37.709Z,101412.36
2023-05-19T17:53:07.086Z,101416.91
2023-05-19T17:55:36.731Z,101420.90
2023-05-19T17:58:05.947Z,101427.09
2023-05-19T18:00:35.561Z,101431.17
2023-05-19T18:03:06.476Z,101435.42
2023-05-19T18:05:36.149Z,101443.63
2023-05-19T18:08:12.161Z,101469.61
2023-05-19T18:10:43.315Z,101554.14
2023-05-19T18:13:15.435Z,101565.74
2023-05-19T18:15:44.249Z,101555.36
2023-05-19T18:18:13.051Z,101550.78
2023-05-19T18:20:45.011Z,101575.80
2023-05-19T18:23:14.021Z,101577.35
2023-05-19T18:25:50.836Z,101566.08
2023-05-19T18:28:19.873Z,101562.48
2023-05-19T18:30:58.249Z,101556.85
2023-05-19T18:35:22.441Z,101554.23
2023-05-19T18:37:51.631Z,101530.45
2023-05-19T18:40:20.595Z,101543.86
2023-05-19T18:42:51.331Z,101526.08
2023-05-19T18:45:20.892Z,101521.48
2023-05-19T18:47:50.191Z,101534.30
2023-05-19T18:50:19.519Z,101533.20
2023-05-19T18:52:48.315Z,101526.19
2023-05-19T18:55:17.359Z,101517.49
2023-05-19T18:57:46.608Z,101520.77
2023-05-19T19:00:16.134Z,101521.91
2023-05-19T19:02:44.906Z,101517.05
2023-05-19T19:05:14.233Z,101518.06
2023-05-19T19:07:44.997Z,101515.10
2023-05-19T19:10:15.435Z,101514.19
2023-05-19T19:12:44.468Z,101513.27
2023-05-19T19:15:13.587Z,101518.48
2023-05-19T19:17:42.602Z,101513.10
2023-05-19T19:20:12.591Z,101509.77
2023-05-19T19:22:41.416Z,101508.35
2023-05-19T19:25:10.853Z,101506.70
2023-05-19T19:27:39.757Z,101506.39
2023-05-19T19:30:09.698Z,101502.92
2023-05-19T19:32:38.541Z,101501.10
2023-05-19T19:35:08.809Z,101501.48
2023-05-19T19:37:38.304Z,101500.71
2023-05-19T19:40:08.060Z,101495.52
2023-05-19T19:42:38.774Z,101495.07
2023-05-19T19:45:08.383Z,101495.63
2023-05-19T19:47:37.526Z,101500.41
2023-05-19T19:50:07.671Z,101500.76
2023-05-19T19:52:37.203Z,101503.04
2023-05-19T19:55:06.693Z,101501.78
2023-05-19T19:57:36.082Z,101503.70
2023-05-19T20:00:08.748Z,101512.53
2023-05-19T20:02:48.481Z,101516.21
2023-05-19T20:05:25.420Z,101520.26
2023-05-19T20:07:54.861Z,101525.30
2023-05-19T20:10:24.623Z,101528.20
2023-05-19T20:12:54.138Z,101526.66
2023-05-19T20:15:23.260Z,101525.13
2023-05-19T20:17:52.393Z,101522.19
2023-05-19T20:20:21.508Z,101525.70
2023-05-19T20:22:50.569Z,101525.81
2023-05-19T20:25:19.689Z,101523.77
2023-05-19T20:27:48.952Z,101525.69
2023-05-19T20:30:18.348Z,101523.54
2023-05-19T20:32:48.863Z,101516.67
2023-05-19T20:35:18.241Z,101524.23
2023-05-19T20:37:48.263Z,101524.38
2023-05-19T20:40:17.268Z,101527.73
2023-05-19T20:42:47.739Z,101526.80
2023-05-19T20:45:17.186Z,101525.86
2023-05-19T20:47:46.476Z,101522.48
2023-05-19T20:50:15.516Z,101519.68
2023-05-19T20:52:44.514Z,101515.30
2023-05-19T20:55:13.454Z,101515.97
2023-05-19T20:57:44.047Z,101513.27
2023-05-19T21:00:13.376Z,101509.83
2023-05-19T21:02:42.323Z,101512.73
2023-05-19T21:05:11.402Z,101511.08
2023-05-19T21:07:40.276Z,101519.73
2023-05-19T21:10:09.668Z,101519.53
2023-05-19T21:12:39.075Z,101524.23
2023-05-19T21:15:09.302Z,101523.04
2023-05-19T21:17:38.169Z,101520.11
2023-05-19T21:20:07.814Z,101524.31
2023-05-19T21:22:36.783Z,101524.51
2023-05-19T21:25:06.402Z,101525.31
2023-05-19T21:27:36.413Z,101519.90
2023-05-19T21:30:06.855Z,101513.30
2023-05-19T21:32:35.726Z,101519.34
2023-05-19T21:35:06.302Z,101523.65
2023-05-19T21:37:35.334Z,101533.63
2023-05-19T21:40:04.283Z,101541.59
2023-05-19T21:42:32.994Z,101540.90
2023-05-19T21:45:02.283Z,101540.11
2023-05-19T21:47:31.026Z,101537.95
2023-05-19T21:49:59.758Z,101533.66
2023-05-19T21:52:28.546Z,101530.02
2023-05-19T21:54:58.482Z,101519.32
2023-05-19T21:57:27.615Z,101517.09
2023-05-19T21:59:56.681Z,101526.23
2023-05-19T22:02:25.552Z,101532.62
2023-05-19T22:04:54.343Z,101521.92
2023-05-19T22:07:27.107Z,101528.66
2023-05-19T22:09:55.933Z,101533.17
2023-05-19T22:12:24.709Z,101531.46
2023-05-19T22:14:53.479Z,101527.52
2023-05-19T22:17:22.423Z,101526.77
2023-05-19T22:19:51.200Z,101524.42
2023-05-19T22:22:20.035Z,101523.45
2023-05-19T22:24:49.144Z,101527.96
2023-05-19T22:27:17.944Z,101531.52
2023-05-19T22:29:46.823Z,101529.11
2023-05-19T22:32:18.162Z,101530.52
2023-05-19T22:34:47.073Z,101530.36
2023-05-19T22:37:15.980Z,101526.88
2023-05-19T22:39:45.013Z,101528.91
2023-05-19T22:42:13.713Z,101532.78
2023-05-19T22:44:43.853Z,101537.77
2023-05-19T22:47:14.014Z,101539.99
2023-05-19T22:49:43.748Z,101533.58
2023-05-19T22:52:13.292Z,101529.64
2023-05-19T22:54:42.199Z,101524.02
2023-05-19T22:57:11.696Z,101523.35
2023-05-19T22:59:41.405Z,101524.64
2023-05-19T23:02:10.142Z,101524.09
2023-05-19T23:04:38.970Z,101527.73
2023-05-19T23:07:07.767Z,101525.45
2023-05-19T23:09:36.528Z,101521.41
2023-05-19T23:12:05.720Z,101524.08
2023-05-19T23:14:34.447Z,101519.33
2023-05-19T23:17:03.219Z,101518.22
2023-05-19T23:19:33.377Z,101519.50
2023-05-19T23:22:02.168Z,101515.98
2023-05-19T23:24:30.902Z,101515.66
2023-05-19T23:27:01.113Z,101519.64
2023-05-19T23:29:29.833Z,101521.91
2023-05-19T23:31:58.549Z,101520.91
2023-05-19T23:34:27.284Z,101520.94
2023-05-19T23:36:56.053Z,101516.20
2023-05-19T23:39:25.536Z,101514.16
2023-05-19T23:41:54.257Z,101510.95
2023-05-19T23:44:23.017Z,101508.20
2023-05-19T23:46:51.830Z,101509.68
2023-05-19T23:49:20.614Z,101511.81
2023-05-19T23:51:49.346Z,101515.73
2023-05-19T23:54:18.075Z,101513.52
2023-05-19T23:56:46.754Z,101514.08
2023-05-19T23:59:15.587Z,101509.39
